sensor_id;sensor_type;location;lat;lon;timestamp;temperature;humidity
67641;SHT31;54434;50.096;20.082;2023-04-03T00:00:27;2.31;83.50
67641;SHT31;54434;50.096;20.082;2023-04-03T00:03:18;2.28;83.62
67641;SHT31;54434;50.096;20.082;2023-04-03T00:05:55;2.26;83.67
67641;SHT31;54434;50.096;20.082;2023-04-03T00:08:32;2.26;83.77
67641;SHT31;54434;50.096;20.082;2023-04-03T00:11:09;2.25;83.84
67641;SHT31;54434;50.096;20.082;2023-04-03T00:13:46;2.25;83.98
67641;SHT31;54434;50.096;20.082;2023-04-03T00:16:23;2.23;84.06
67641;SHT31;54434;50.096;20.082;2023-04-03T00:19:00;2.22;84.09
67641;SHT31;54434;50.096;20.082;2023-04-03T00:21:37;2.20;84.15
67641;SHT31;54434;50.096;20.082;2023-04-03T00:24:13;2.15;84.22
67641;SHT31;54434;50.096;20.082;2023-04-03T00:26:50;2.13;84.29
67641;SHT31;54434;50.096;20.082;2023-04-03T00:29:26;2.09;84.32
67641;SHT31;54434;50.096;20.082;2023-04-03T00:32:02;2.05;84.31
67641;SHT31;54434;50.096;20.082;2023-04-03T00:34:39;2.02;84.38
67641;SHT31;54434;50.096;20.082;2023-04-03T00:37:15;1.97;84.44
67641;SHT31;54434;50.096;20.082;2023-04-03T00:39:52;1.93;84.50
67641;SHT31;54434;50.096;20.082;2023-04-03T00:42:28;1.89;84.56
67641;SHT31;54434;50.096;20.082;2023-04-03T00:45:27;1.86;84.57
67641;SHT31;54434;50.096;20.082;2023-04-03T00:48:11;1.81;84.66
67641;SHT31;54434;50.096;20.082;2023-04-03T00:50:53;1.76;84.69
67641;SHT31;54434;50.096;20.082;2023-04-03T00:53:32;1.73;84.71
67641;SHT31;54434;50.096;20.082;2023-04-03T00:56:16;1.68;84.79
67641;SHT31;54434;50.096;20.082;2023-04-03T00:58:59;1.64;84.81
67641;SHT31;54434;50.096;20.082;2023-04-03T01:01:41;1.63;84.84
67641;SHT31;54434;50.096;20.082;2023-04-03T01:04:29;1.59;84.89
67641;SHT31;54434;50.096;20.082;2023-04-03T01:07:10;1.56;84.97
67641;SHT31;54434;50.096;20.082;2023-04-03T01:09:53;1.53;85.07
67641;SHT31;54434;50.096;20.082;2023-04-03T01:12:36;1.51;85.20
67641;SHT31;54434;50.096;20.082;2023-04-03T01:15:19;1.49;85.21
67641;SHT31;54434;50.096;20.082;2023-04-03T01:17:58;1.47;85.38
67641;SHT31;54434;50.096;20.082;2023-04-03T01:20:50;1.45;85.48
67641;SHT31;54434;50.096;20.082;2023-04-03T01:24:21;1.43;85.56
67641;SHT31;54434;50.096;20.082;2023-04-03T01:27:09;1.42;85.61
67641;SHT31;54434;50.096;20.082;2023-04-03T01:29:46;1.43;85.44
67641;SHT31;54434;50.096;20.082;2023-04-03T01:32:23;1.46;85.43
67641;SHT31;54434;50.096;20.082;2023-04-03T01:34:59;1.46;85.40
67641;SHT31;54434;50.096;20.082;2023-04-03T01:37:36;1.46;85.44
67641;SHT31;54434;50.096;20.082;2023-04-03T01:40:14;1.45;85.53
67641;SHT31;54434;50.096;20.082;2023-04-03T01:42:51;1.46;85.52
67641;SHT31;54434;50.096;20.082;2023-04-03T01:45:27;1.46;85.49
67641;SHT31;54434;50.096;20.082;2023-04-03T01:48:04;1.45;85.57
67641;SHT31;54434;50.096;20.082;2023-04-03T01:50:40;1.44;85.52
67641;SHT31;54434;50.096;20.082;2023-04-03T01:53:17;1.43;85.58
67641;SHT31;54434;50.096;20.082;2023-04-03T01:55:54;1.42;85.71
67641;SHT31;54434;50.096;20.082;2023-04-03T01:58:30;1.42;85.64
67641;SHT31;54434;50.096;20.082;2023-04-03T02:01:07;1.40;85.69
67641;SHT31;54434;50.096;20.082;2023-04-03T02:03:44;1.41;85.66
67641;SHT31;54434;50.096;20.082;2023-04-03T02:06:21;1.41;85.68
67641;SHT31;54434;50.096;20.082;2023-04-03T02:08:58;1.41;85.70
67641;SHT31;54434;50.096;20.082;2023-04-03T02:11:34;1.44;85.70
67641;SHT31;54434;50.096;20.082;2023-04-03T02:14:11;1.42;85.67
67641;SHT31;54434;50.096;20.082;2023-04-03T02:16:48;1.43;85.67
67641;SHT31;54434;50.096;20.082;2023-04-03T02:19:26;1.44;85.60
67641;SHT31;54434;50.096;20.082;2023-04-03T02:22:03;1.44;85.59
67641;SHT31;54434;50.096;20.082;2023-04-03T02:24:40;1.42;85.63
67641;SHT31;54434;50.096;20.082;2023-04-03T02:27:16;1.40;85.63
67641;SHT31;54434;50.096;20.082;2023-04-03T02:29:53;1.41;85.66
67641;SHT31;54434;50.096;20.082;2023-04-03T02:32:29;1.39;85.71
67641;SHT31;54434;50.096;20.082;2023-04-03T02:35:08;1.39;85.72
67641;SHT31;54434;50.096;20.082;2023-04-03T02:37:44;1.37;85.72
67641;SHT31;54434;50.096;20.082;2023-04-03T02:40:21;1.36;85.78
67641;SHT31;54434;50.096;20.082;2023-04-03T02:42:57;1.34;85.80
67641;SHT31;54434;50.096;20.082;2023-04-03T02:45:34;1.34;85.71
67641;SHT31;54434;50.096;20.082;2023-04-03T02:48:10;1.30;85.64
67641;SHT31;54434;50.096;20.082;2023-04-03T02:50:48;1.30;85.51
67641;SHT31;54434;50.096;20.082;2023-04-03T02:53:25;1.29;85.45
67641;SHT31;54434;50.096;20.082;2023-04-03T02:56:02;1.28;85.41
67641;SHT31;54434;50.096;20.082;2023-04-03T02:58:39;1.27;85.41
67641;SHT31;54434;50.096;20.082;2023-04-03T03:01:16;1.25;85.45
67641;SHT31;54434;50.096;20.082;2023-04-03T03:03:52;1.22;85.48
67641;SHT31;54434;50.096;20.082;2023-04-03T03:06:30;1.20;85.60
67641;SHT31;54434;50.096;20.082;2023-04-03T03:09:07;1.21;85.65
67641;SHT31;54434;50.096;20.082;2023-04-03T03:11:46;1.20;85.66
67641;SHT31;54434;50.096;20.082;2023-04-03T03:14:22;1.20;85.66
67641;SHT31;54434;50.096;20.082;2023-04-03T03:16:59;1.18;85.71
67641;SHT31;54434;50.096;20.082;2023-04-03T03:19:35;1.18;85.71
67641;SHT31;54434;50.096;20.082;2023-04-03T03:22:12;1.18;85.78
67641;SHT31;54434;50.096;20.082;2023-04-03T03:24:49;1.18;85.73
67641;SHT31;54434;50.096;20.082;2023-04-03T03:27:25;1.18;85.73
67641;SHT31;54434;50.096;20.082;2023-04-03T03:30:02;1.19;85.77
67641;SHT31;54434;50.096;20.082;2023-04-03T03:32:41;1.19;85.80
67641;SHT31;54434;50.096;20.082;2023-04-03T03:35:17;1.19;85.80
67641;SHT31;54434;50.096;20.082;2023-04-03T03:37:54;1.20;85.80
67641;SHT31;54434;50.096;20.082;2023-04-03T03:40:31;1.20;85.73
67641;SHT31;54434;50.096;20.082;2023-04-03T03:43:07;1.19;85.75
67641;SHT31;54434;50.096;20.082;2023-04-03T03:45:44;1.17;85.71
67641;SHT31;54434;50.096;20.082;2023-04-03T03:48:26;1.17;85.58
67641;SHT31;54434;50.096;20.082;2023-04-03T03:51:02;1.18;85.48
67641;SHT31;54434;50.096;20.082;2023-04-03T03:53:42;1.18;85.51
67641;SHT31;54434;50.096;20.082;2023-04-03T03:56:20;1.18;85.51
67641;SHT31;54434;50.096;20.082;2023-04-03T03:58:57;1.17;85.51
67641;SHT31;54434;50.096;20.082;2023-04-03T04:01:35;1.17;85.51
67641;SHT31;54434;50.096;20.082;2023-04-03T04:04:12;1.16;85.51
67641;SHT31;54434;50.096;20.082;2023-04-03T04:06:49;1.15;85.56
67641;SHT31;54434;50.096;20.082;2023-04-03T04:09:26;1.15;85.52
67641;SHT31;54434;50.096;20.082;2023-04-03T04:12:03;1.13;85.60
67641;SHT31;54434;50.096;20.082;2023-04-03T04:14:40;1.10;85.66
67641;SHT31;54434;50.096;20.082;2023-04-03T04:17:19;1.09;85.65
67641;SHT31;54434;50.096;20.082;2023-04-03T04:19:56;1.09;85.62
67641;SHT31;54434;50.096;20.082;2023-04-03T04:22:33;1.09;85.65
67641;SHT31;54434;50.096;20.082;2023-04-03T04:25:11;1.09;85.60
67641;SHT31;54434;50.096;20.082;2023-04-03T04:27:48;1.07;85.57
67641;SHT31;54434;50.096;20.082;2023-04-03T04:30:25;1.07;85.53
67641;SHT31;54434;50.096;20.082;2023-04-03T04:33:02;1.06;85.21
67641;SHT31;54434;50.096;20.082;2023-04-03T04:35:40;1.01;84.80
67641;SHT31;54434;50.096;20.082;2023-04-03T04:38:20;0.99;84.62
67641;SHT31;54434;50.096;20.082;2023-04-03T04:40:57;0.99;84.69
67641;SHT31;54434;50.096;20.082;2023-04-03T04:43:34;0.96;84.58
67641;SHT31;54434;50.096;20.082;2023-04-03T04:46:11;0.97;84.78
67641;SHT31;54434;50.096;20.082;2023-04-03T04:48:52;0.95;84.87
67641;SHT31;54434;50.096;20.082;2023-04-03T04:51:29;0.96;84.92
67641;SHT31;54434;50.096;20.082;2023-04-03T04:54:15;0.95;85.04
67641;SHT31;54434;50.096;20.082;2023-04-03T04:56:53;0.95;84.97
67641;SHT31;54434;50.096;20.082;2023-04-03T04:59:30;0.94;84.91
67641;SHT31;54434;50.096;20.082;2023-04-03T05:02:07;0.96;84.93
67641;SHT31;54434;50.096;20.082;2023-04-03T05:04:44;0.98;84.96
67641;SHT31;54434;50.096;20.082;2023-04-03T05:07:26;0.98;84.88
67641;SHT31;54434;50.096;20.082;2023-04-03T05:10:01;0.97;84.85
67641;SHT31;54434;50.096;20.082;2023-04-03T05:12:40;1.00;84.96
67641;SHT31;54434;50.096;20.082;2023-04-03T05:15:17;1.02;84.95
67641;SHT31;54434;50.096;20.082;2023-04-03T05:17:54;1.02;84.87
67641;SHT31;54434;50.096;20.082;2023-04-03T05:20:31;1.02;84.80
67641;SHT31;54434;50.096;20.082;2023-04-03T05:23:08;1.03;84.74
67641;SHT31;54434;50.096;20.082;2023-04-03T05:25:45;1.05;84.70
67641;SHT31;54434;50.096;20.082;2023-04-03T05:28:22;1.04;84.52
67641;SHT31;54434;50.096;20.082;2023-04-03T05:30:59;1.04;84.50
67641;SHT31;54434;50.096;20.082;2023-04-03T05:33:38;1.05;84.40
67641;SHT31;54434;50.096;20.082;2023-04-03T05:36:17;1.04;84.34
67641;SHT31;54434;50.096;20.082;2023-04-03T05:38:58;1.02;84.17
67641;SHT31;54434;50.096;20.082;2023-04-03T05:41:35;1.02;83.95
67641;SHT31;54434;50.096;20.082;2023-04-03T05:44:11;1.03;83.73
67641;SHT31;54434;50.096;20.082;2023-04-03T05:46:48;1.02;83.19
67641;SHT31;54434;50.096;20.082;2023-04-03T05:49:25;1.02;83.12
67641;SHT31;54434;50.096;20.082;2023-04-03T05:52:01;1.08;83.02
67641;SHT31;54434;50.096;20.082;2023-04-03T05:54:38;1.14;82.92
67641;SHT31;54434;50.096;20.082;2023-04-03T05:57:20;1.23;82.66
67641;SHT31;54434;50.096;20.082;2023-04-03T05:59:57;1.25;82.02
67641;SHT31;54434;50.096;20.082;2023-04-03T06:02:34;1.32;82.18
67641;SHT31;54434;50.096;20.082;2023-04-03T06:05:11;1.33;81.51
67641;SHT31;54434;50.096;20.082;2023-04-03T06:07:48;1.34;81.40
67641;SHT31;54434;50.096;20.082;2023-04-03T06:10:24;1.38;81.24
67641;SHT31;54434;50.096;20.082;2023-04-03T06:13:01;1.42;81.14
67641;SHT31;54434;50.096;20.082;2023-04-03T06:15:37;1.45;80.87
67641;SHT31;54434;50.096;20.082;2023-04-03T06:18:14;1.47;80.20
67641;SHT31;54434;50.096;20.082;2023-04-03T06:20:51;1.52;80.06
67641;SHT31;54434;50.096;20.082;2023-04-03T06:23:28;1.59;80.05
67641;SHT31;54434;50.096;20.082;2023-04-03T06:26:04;1.69;80.26
67641;SHT31;54434;50.096;20.082;2023-04-03T06:28:40;1.77;79.81
67641;SHT31;54434;50.096;20.082;2023-04-03T06:31:17;1.84;79.26
67641;SHT31;54434;50.096;20.082;2023-04-03T06:33:53;1.90;78.44
67641;SHT31;54434;50.096;20.082;2023-04-03T06:36:30;1.87;77.47
67641;SHT31;54434;50.096;20.082;2023-04-03T06:39:08;1.92;78.17
67641;SHT31;54434;50.096;20.082;2023-04-03T06:41:48;1.99;78.06
67641;SHT31;54434;50.096;20.082;2023-04-03T06:44:32;1.98;76.96
67641;SHT31;54434;50.096;20.082;2023-04-03T06:47:10;2.07;77.28
67641;SHT31;54434;50.096;20.082;2023-04-03T06:49:48;2.13;77.07
67641;SHT31;54434;50.096;20.082;2023-04-03T06:52:28;2.21;76.60
67641;SHT31;54434;50.096;20.082;2023-04-03T06:55:05;2.29;76.10
67641;SHT31;54434;50.096;20.082;2023-04-03T06:57:43;2.38;75.89
67641;SHT31;54434;50.096;20.082;2023-04-03T07:00:20;2.51;75.56
67641;SHT31;54434;50.096;20.082;2023-04-03T07:02:57;2.63;75.31
67641;SHT31;54434;50.096;20.082;2023-04-03T07:05:34;2.73;74.66
67641;SHT31;54434;50.096;20.082;2023-04-03T07:08:12;2.87;74.28
67641;SHT31;54434;50.096;20.082;2023-04-03T07:10:48;3.05;73.70
67641;SHT31;54434;50.096;20.082;2023-04-03T07:13:25;3.43;73.35
67641;SHT31;54434;50.096;20.082;2023-04-03T07:16:01;3.86;72.18
67641;SHT31;54434;50.096;20.082;2023-04-03T07:18:40;4.26;71.29
67641;SHT31;54434;50.096;20.082;2023-04-03T07:21:17;4.65;70.67
67641;SHT31;54434;50.096;20.082;2023-04-03T07:23:53;5.02;69.47
67641;SHT31;54434;50.096;20.082;2023-04-03T07:26:30;5.43;67.84
67641;SHT31;54434;50.096;20.082;2023-04-03T07:29:07;5.76;67.48
67641;SHT31;54434;50.096;20.082;2023-04-03T07:31:44;5.95;64.46
67641;SHT31;54434;50.096;20.082;2023-04-03T07:34:21;5.97;63.52
67641;SHT31;54434;50.096;20.082;2023-04-03T07:36:57;5.90;62.52
67641;SHT31;54434;50.096;20.082;2023-04-03T07:39:34;5.88;62.99
67641;SHT31;54434;50.096;20.082;2023-04-03T07:42:10;5.78;63.54
67641;SHT31;54434;50.096;20.082;2023-04-03T07:44:47;5.59;63.23
67641;SHT31;54434;50.096;20.082;2023-04-03T07:47:23;5.39;62.89
67641;SHT31;54434;50.096;20.082;2023-04-03T07:50:00;5.34;63.63
67641;SHT31;54434;50.096;20.082;2023-04-03T07:57:15;5.54;61.90
67641;SHT31;54434;50.096;20.082;2023-04-03T07:59:51;5.76;61.48
67641;SHT31;54434;50.096;20.082;2023-04-03T08:02:28;5.90;61.57
67641;SHT31;54434;50.096;20.082;2023-04-03T08:05:06;6.26;61.63
67641;SHT31;54434;50.096;20.082;2023-04-03T08:07:43;6.48;59.75
67641;SHT31;54434;50.096;20.082;2023-04-03T08:10:20;6.36;58.59
67641;SHT31;54434;50.096;20.082;2023-04-03T08:12:56;6.28;59.19
67641;SHT31;54434;50.096;20.082;2023-04-03T08:15:33;6.13;60.37
67641;SHT31;54434;50.096;20.082;2023-04-03T08:18:10;5.86;59.95
67641;SHT31;54434;50.096;20.082;2023-04-03T08:20:47;5.52;60.30
67641;SHT31;54434;50.096;20.082;2023-04-03T08:23:24;5.24;60.82
67641;SHT31;54434;50.096;20.082;2023-04-03T08:26:06;5.01;61.62
67641;SHT31;54434;50.096;20.082;2023-04-03T08:28:45;4.74;62.05
67641;SHT31;54434;50.096;20.082;2023-04-03T08:31:22;4.38;61.63
67641;SHT31;54434;50.096;20.082;2023-04-03T08:33:59;4.06;62.72
67641;SHT31;54434;50.096;20.082;2023-04-03T08:36:35;3.85;63.78
67641;SHT31;54434;50.096;20.082;2023-04-03T08:39:12;3.69;63.89
67641;SHT31;54434;50.096;20.082;2023-04-03T08:41:49;3.53;65.06
67641;SHT31;54434;50.096;20.082;2023-04-03T08:44:32;3.38;65.40
67641;SHT31;54434;50.096;20.082;2023-04-03T08:47:28;3.18;65.76
67641;SHT31;54434;50.096;20.082;2023-04-03T08:50:16;3.06;65.93
67641;SHT31;54434;50.096;20.082;2023-04-03T08:53:01;2.94;65.96
67641;SHT31;54434;50.096;20.082;2023-04-03T08:55:46;2.92;67.03
67641;SHT31;54434;50.096;20.082;2023-04-03T08:58:25;2.92;67.14
67641;SHT31;54434;50.096;20.082;2023-04-03T09:01:07;2.88;67.40
67641;SHT31;54434;50.096;20.082;2023-04-03T09:03:58;2.81;67.68
67641;SHT31;54434;50.096;20.082;2023-04-03T09:06:37;2.74;67.63
67641;SHT31;54434;50.096;20.082;2023-04-03T09:09:20;2.58;67.43
67641;SHT31;54434;50.096;20.082;2023-04-03T09:12:15;2.45;69.23
67641;SHT31;54434;50.096;20.082;2023-04-03T09:15:02;2.37;69.30
67641;SHT31;54434;50.096;20.082;2023-04-03T09:18:15;2.25;69.73
67641;SHT31;54434;50.096;20.082;2023-04-03T09:21:01;2.20;70.62
67641;SHT31;54434;50.096;20.082;2023-04-03T09:23:51;2.11;70.65
67641;SHT31;54434;50.096;20.082;2023-04-03T09:26:33;2.04;70.82
67641;SHT31;54434;50.096;20.082;2023-04-03T09:29:18;2.05;71.49
67641;SHT31;54434;50.096;20.082;2023-04-03T09:31:59;2.10;71.40
67641;SHT31;54434;50.096;20.082;2023-04-03T09:34:49;2.07;70.82
67641;SHT31;54434;50.096;20.082;2023-04-03T09:37:37;2.07;70.85
67641;SHT31;54434;50.096;20.082;2023-04-03T09:40:45;2.09;71.35
67641;SHT31;54434;50.096;20.082;2023-04-03T09:43:26;2.14;71.53
67641;SHT31;54434;50.096;20.082;2023-04-03T09:46:28;2.20;71.13
67641;SHT31;54434;50.096;20.082;2023-04-03T09:49:10;2.25;70.56
67641;SHT31;54434;50.096;20.082;2023-04-03T09:51:48;2.25;69.80
67641;SHT31;54434;50.096;20.082;2023-04-03T09:54:38;2.28;69.33
67641;SHT31;54434;50.096;20.082;2023-04-03T09:57:15;2.36;69.15
67641;SHT31;54434;50.096;20.082;2023-04-03T10:00:00;2.43;68.87
67641;SHT31;54434;50.096;20.082;2023-04-03T10:02:53;2.46;68.69
67641;SHT31;54434;50.096;20.082;2023-04-03T10:05:35;2.46;68.43
67641;SHT31;54434;50.096;20.082;2023-04-03T10:08:23;2.50;68.72
67641;SHT31;54434;50.096;20.082;2023-04-03T10:11:11;2.54;68.57
67641;SHT31;54434;50.096;20.082;2023-04-03T10:13:55;2.58;68.43
67641;SHT31;54434;50.096;20.082;2023-04-03T10:16:38;2.59;68.11
67641;SHT31;54434;50.096;20.082;2023-04-03T10:19:34;2.64;67.74
67641;SHT31;54434;50.096;20.082;2023-04-03T10:22:20;2.76;68.95
67641;SHT31;54434;50.096;20.082;2023-04-03T10:25:12;2.84;67.76
67641;SHT31;54434;50.096;20.082;2023-04-03T10:28:03;2.86;68.16
67641;SHT31;54434;50.096;20.082;2023-04-03T10:30:48;2.93;67.76
67641;SHT31;54434;50.096;20.082;2023-04-03T10:33:41;2.95;67.19
67641;SHT31;54434;50.096;20.082;2023-04-03T10:36:36;3.01;68.27
67641;SHT31;54434;50.096;20.082;2023-04-03T10:39:23;3.05;67.76
67641;SHT31;54434;50.096;20.082;2023-04-03T10:42:15;3.12;68.25
67641;SHT31;54434;50.096;20.082;2023-04-03T10:45:14;3.19;68.47
67641;SHT31;54434;50.096;20.082;2023-04-03T10:48:04;3.24;68.11
67641;SHT31;54434;50.096;20.082;2023-04-03T10:50:55;3.31;68.37
67641;SHT31;54434;50.096;20.082;2023-04-03T10:53:41;3.40;68.92
67641;SHT31;54434;50.096;20.082;2023-04-03T10:56:33;3.37;68.57
67641;SHT31;54434;50.096;20.082;2023-04-03T10:59:20;3.32;68.53
67641;SHT31;54434;50.096;20.082;2023-04-03T11:02:04;3.41;68.42
67641;SHT31;54434;50.096;20.082;2023-04-03T11:04:56;3.54;67.64
67641;SHT31;54434;50.096;20.082;2023-04-03T11:07:42;3.61;66.46
67641;SHT31;54434;50.096;20.082;2023-04-03T11:10:24;3.67;65.89
67641;SHT31;54434;50.096;20.082;2023-04-03T11:13:13;3.76;64.49
67641;SHT31;54434;50.096;20.082;2023-04-03T11:17:30;3.94;64.92
67641;SHT31;54434;50.096;20.082;2023-04-03T11:22:25;4.06;64.53
67641;SHT31;54434;50.096;20.082;2023-04-03T11:25:18;4.10;64.09
67641;SHT31;54434;50.096;20.082;2023-04-03T11:27:59;4.07;63.07
67641;SHT31;54434;50.096;20.082;2023-04-03T11:30:42;4.10;63.88
67641;SHT31;54434;50.096;20.082;2023-04-03T11:33:39;4.19;62.74
67641;SHT31;54434;50.096;20.082;2023-04-03T11:36:27;4.27;62.06
67641;SHT31;54434;50.096;20.082;2023-04-03T11:39:19;4.34;61.96
67641;SHT31;54434;50.096;20.082;2023-04-03T11:45:34;4.50;60.30
67641;SHT31;54434;50.096;20.082;2023-04-03T11:48:45;4.41;60.01
67641;SHT31;54434;50.096;20.082;2023-04-03T11:51:53;4.47;60.87
67641;SHT31;54434;50.096;20.082;2023-04-03T11:54:48;4.52;60.81
67641;SHT31;54434;50.096;20.082;2023-04-03T11:58:04;4.47;57.98
67641;SHT31;54434;50.096;20.082;2023-04-03T12:00:51;4.73;60.89
67641;SHT31;54434;50.096;20.082;2023-04-03T12:04:05;4.79;58.38
67641;SHT31;54434;50.096;20.082;2023-04-03T12:07:08;4.82;59.93
67641;SHT31;54434;50.096;20.082;2023-04-03T12:10:00;4.86;58.15
67641;SHT31;54434;50.096;20.082;2023-04-03T12:13:15;4.76;54.13
67641;SHT31;54434;50.096;20.082;2023-04-03T12:15:54;4.66;54.19
67641;SHT31;54434;50.096;20.082;2023-04-03T12:18:57;4.59;55.19
67641;SHT31;54434;50.096;20.082;2023-04-03T12:24:56;4.90;56.37
67641;SHT31;54434;50.096;20.082;2023-04-03T12:27:52;4.99;55.13
67641;SHT31;54434;50.096;20.082;2023-04-03T12:30:29;5.06;55.13
67641;SHT31;54434;50.096;20.082;2023-04-03T12:33:22;5.04;54.54
67641;SHT31;54434;50.096;20.082;2023-04-03T12:36:13;5.00;54.72
67641;SHT31;54434;50.096;20.082;2023-04-03T12:39:11;5.01;55.55
67641;SHT31;54434;50.096;20.082;2023-04-03T12:42:15;4.96;54.06
67641;SHT31;54434;50.096;20.082;2023-04-03T12:45:11;4.90;56.02
67641;SHT31;54434;50.096;20.082;2023-04-03T12:47:55;4.93;56.34
67641;SHT31;54434;50.096;20.082;2023-04-03T12:50:35;4.87;56.49
67641;SHT31;54434;50.096;20.082;2023-04-03T12:53:16;4.80;55.33
67641;SHT31;54434;50.096;20.082;2023-04-03T12:56:04;4.79;56.40
67641;SHT31;54434;50.096;20.082;2023-04-03T12:59:12;4.74;56.00
67641;SHT31;54434;50.096;20.082;2023-04-03T13:01:58;4.71;56.43
67641;SHT31;54434;50.096;20.082;2023-04-03T13:04:39;4.70;56.92
67641;SHT31;54434;50.096;20.082;2023-04-03T13:07:24;4.75;57.80
67641;SHT31;54434;50.096;20.082;2023-04-03T13:10:15;4.87;57.07
67641;SHT31;54434;50.096;20.082;2023-04-03T13:12:55;4.94;56.61
67641;SHT31;54434;50.096;20.082;2023-04-03T13:15:45;4.87;55.66
67641;SHT31;54434;50.096;20.082;2023-04-03T13:18:30;4.85;55.37
67641;SHT31;54434;50.096;20.082;2023-04-03T13:21:12;4.81;55.04
67641;SHT31;54434;50.096;20.082;2023-04-03T13:23:54;4.81;54.55
67641;SHT31;54434;50.096;20.082;2023-04-03T13:26:46;4.83;54.75
67641;SHT31;54434;50.096;20.082;2023-04-03T13:29:26;4.72;51.56
67641;SHT31;54434;50.096;20.082;2023-04-03T13:32:06;4.64;52.56
67641;SHT31;54434;50.096;20.082;2023-04-03T13:34:49;4.56;52.30
67641;SHT31;54434;50.096;20.082;2023-04-03T13:37:33;4.60;55.10
67641;SHT31;54434;50.096;20.082;2023-04-03T13:40:13;4.66;55.10
67641;SHT31;54434;50.096;20.082;2023-04-03T13:43:00;4.60;54.24
67641;SHT31;54434;50.096;20.082;2023-04-03T13:45:59;4.46;55.17
67641;SHT31;54434;50.096;20.082;2023-04-03T13:48:55;4.40;55.12
67641;SHT31;54434;50.096;20.082;2023-04-03T13:51:49;4.42;57.10
67641;SHT31;54434;50.096;20.082;2023-04-03T13:54:38;4.44;57.15
67641;SHT31;54434;50.096;20.082;2023-04-03T13:57:18;4.44;57.17
67641;SHT31;54434;50.096;20.082;2023-04-03T13:59:55;4.46;56.88
67641;SHT31;54434;50.096;20.082;2023-04-03T14:02:33;4.44;57.02
67641;SHT31;54434;50.096;20.082;2023-04-03T14:05:13;4.40;56.82
67641;SHT31;54434;50.096;20.082;2023-04-03T14:07:52;4.32;56.97
67641;SHT31;54434;50.096;20.082;2023-04-03T14:10:31;4.33;57.74
67641;SHT31;54434;50.096;20.082;2023-04-03T14:13:08;4.34;57.32
67641;SHT31;54434;50.096;20.082;2023-04-03T14:15:47;4.32;57.16
67641;SHT31;54434;50.096;20.082;2023-04-03T14:18:27;4.26;56.21
67641;SHT31;54434;50.096;20.082;2023-04-03T14:21:04;4.24;56.97
67641;SHT31;54434;50.096;20.082;2023-04-03T14:23:40;4.24;55.92
67641;SHT31;54434;50.096;20.082;2023-04-03T14:26:18;4.23;56.16
67641;SHT31;54434;50.096;20.082;2023-04-03T14:28:58;4.23;56.30
67641;SHT31;54434;50.096;20.082;2023-04-03T14:31:35;4.23;56.38
67641;SHT31;54434;50.096;20.082;2023-04-03T14:34:12;4.27;56.63
67641;SHT31;54434;50.096;20.082;2023-04-03T14:36:50;4.27;57.32
67641;SHT31;54434;50.096;20.082;2023-04-03T14:39:27;4.22;56.36
67641;SHT31;54434;50.096;20.082;2023-04-03T14:42:04;4.17;57.10
67641;SHT31;54434;50.096;20.082;2023-04-03T14:44:44;4.12;56.78
67641;SHT31;54434;50.096;20.082;2023-04-03T14:47:23;4.07;56.75
67641;SHT31;54434;50.096;20.082;2023-04-03T14:50:06;4.03;56.91
67641;SHT31;54434;50.096;20.082;2023-04-03T14:52:47;3.99;57.32
67641;SHT31;54434;50.096;20.082;2023-04-03T14:55:26;3.96;57.06
67641;SHT31;54434;50.096;20.082;2023-04-03T14:58:03;3.94;57.02
67641;SHT31;54434;50.096;20.082;2023-04-03T15:00:41;3.96;57.09
67641;SHT31;54434;50.096;20.082;2023-04-03T15:03:20;3.98;56.29
67641;SHT31;54434;50.096;20.082;2023-04-03T15:05:57;3.97;55.50
67641;SHT31;54434;50.096;20.082;2023-04-03T15:08:34;3.97;55.84
67641;SHT31;54434;50.096;20.082;2023-04-03T15:11:13;3.96;55.51
67641;SHT31;54434;50.096;20.082;2023-04-03T15:13:49;3.91;55.76
67641;SHT31;54434;50.096;20.082;2023-04-03T15:16:26;3.87;56.06
67641;SHT31;54434;50.096;20.082;2023-04-03T15:19:03;3.87;55.52
67641;SHT31;54434;50.096;20.082;2023-04-03T15:21:39;3.87;55.15
67641;SHT31;54434;50.096;20.082;2023-04-03T15:24:16;3.92;54.86
67641;SHT31;54434;50.096;20.082;2023-04-03T15:26:52;3.95;54.13
67641;SHT31;54434;50.096;20.082;2023-04-03T15:29:29;4.01;54.61
67641;SHT31;54434;50.096;20.082;2023-04-03T15:32:05;4.03;54.29
67641;SHT31;54434;50.096;20.082;2023-04-03T15:34:43;4.03;54.71
67641;SHT31;54434;50.096;20.082;2023-04-03T15:37:19;4.01;54.59
67641;SHT31;54434;50.096;20.082;2023-04-03T15:39:56;3.96;54.82
67641;SHT31;54434;50.096;20.082;2023-04-03T15:42:32;3.90;54.83
67641;SHT31;54434;50.096;20.082;2023-04-03T15:45:10;3.82;55.25
67641;SHT31;54434;50.096;20.082;2023-04-03T15:47:46;3.74;52.95
67641;SHT31;54434;50.096;20.082;2023-04-03T15:50:23;3.67;54.01
67641;SHT31;54434;50.096;20.082;2023-04-03T15:53:00;3.61;53.93
67641;SHT31;54434;50.096;20.082;2023-04-03T15:55:38;3.57;54.42
67641;SHT31;54434;50.096;20.082;2023-04-03T15:58:15;3.55;54.03
67641;SHT31;54434;50.096;20.082;2023-04-03T16:00:56;3.52;54.08
67641;SHT31;54434;50.096;20.082;2023-04-03T16:03:33;3.50;54.26
67641;SHT31;54434;50.096;20.082;2023-04-03T16:06:16;3.47;53.04
67641;SHT31;54434;50.096;20.082;2023-04-03T16:08:53;3.47;53.85
67641;SHT31;54434;50.096;20.082;2023-04-03T16:11:30;3.46;54.47
67641;SHT31;54434;50.096;20.082;2023-04-03T16:14:09;3.48;54.37
67641;SHT31;54434;50.096;20.082;2023-04-03T16:16:46;3.45;53.19
67641;SHT31;54434;50.096;20.082;2023-04-03T16:19:25;3.43;53.33
67641;SHT31;54434;50.096;20.082;2023-04-03T16:22:03;3.40;54.41
67641;SHT31;54434;50.096;20.082;2023-04-03T16:24:40;3.37;55.14
67641;SHT31;54434;50.096;20.082;2023-04-03T16:27:16;3.32;54.13
67641;SHT31;54434;50.096;20.082;2023-04-03T16:29:53;3.27;53.56
67641;SHT31;54434;50.096;20.082;2023-04-03T16:32:31;3.22;53.64
67641;SHT31;54434;50.096;20.082;2023-04-03T16:35:09;3.17;54.38
67641;SHT31;54434;50.096;20.082;2023-04-03T16:37:46;3.12;54.62
67641;SHT31;54434;50.096;20.082;2023-04-03T16:40:23;3.06;54.31
67641;SHT31;54434;50.096;20.082;2023-04-03T16:43:00;3.03;55.21
67641;SHT31;54434;50.096;20.082;2023-04-03T16:45:37;2.98;55.78
67641;SHT31;54434;50.096;20.082;2023-04-03T16:48:14;2.95;56.16
67641;SHT31;54434;50.096;20.082;2023-04-03T16:50:51;2.92;56.55
67641;SHT31;54434;50.096;20.082;2023-04-03T16:53:28;2.87;57.82
67641;SHT31;54434;50.096;20.082;2023-04-03T16:56:05;2.82;57.62
67641;SHT31;54434;50.096;20.082;2023-04-03T16:58:42;2.78;57.60
67641;SHT31;54434;50.096;20.082;2023-04-03T17:01:20;2.74;57.92
67641;SHT31;54434;50.096;20.082;2023-04-03T17:03:56;2.68;57.95
67641;SHT31;54434;50.096;20.082;2023-04-03T17:06:33;2.63;58.32
67641;SHT31;54434;50.096;20.082;2023-04-03T17:09:10;2.57;58.42
67641;SHT31;54434;50.096;20.082;2023-04-03T17:11:47;2.50;58.66